sensor_id;sensor_type;location;lat;lon;timestamp;P1;durP1;ratioP1;P2;durP2;ratioP2
1703;SDS011;849;48.780;9.216;2023-04-24T00:00:09;12.70;;;0.40;;
1703;SDS011;849;48.780;9.216;2023-04-24T00:02:35;12.63;;;0.40;;
1703;SDS011;849;48.780;9.216;2023-04-24T00:05:05;12.67;;;0.50;;
1703;SDS011;849;48.780;9.216;2023-04-24T00:07:32;12.40;;;0.40;;
1703;SDS011;849;48.780;9.216;2023-04-24T00:09:58;12.37;;;0.40;;
1703;SDS011;849;48.780;9.216;2023-04-24T00:12:25;12.47;;;0.40;;
1703;SDS011;849;48.780;9.216;2023-04-24T00:14:52;13.93;;;0.50;;
1703;SDS011;849;48.780;9.216;2023-04-24T00:17:18;12.23;;;0.40;;
1703;SDS011;849;48.780;9.216;2023-04-24T00:19:46;12.17;;;0.40;;
1703;SDS011;849;48.780;9.216;2023-04-24T00:22:12;12.23;;;0.40;;
1703;SDS011;849;48.780;9.216;2023-04-24T00:24:38;12.17;;;0.40;;
1703;SDS011;849;48.780;9.216;2023-04-24T00:27:04;12.23;;;0.40;;
1703;SDS011;849;48.780;9.216;2023-04-24T00:29:30;12.03;;;0.40;;
1703;SDS011;849;48.780;9.216;2023-04-24T00:31:56;11.97;;;0.40;;
1703;SDS011;849;48.780;9.216;2023-04-24T00:34:22;12.03;;;0.40;;
1703;SDS011;849;48.780;9.216;2023-04-24T00:36:48;12.13;;;0.90;;
1703;SDS011;849;48.780;9.216;2023-04-24T00:39:20;12.03;;;0.40;;
1703;SDS011;849;48.780;9.216;2023-04-24T00:41:46;12.03;;;0.40;;
1703;SDS011;849;48.780;9.216;2023-04-24T00:44:13;11.87;;;0.40;;
1703;SDS011;849;48.780;9.216;2023-04-24T00:46:42;11.93;;;0.40;;
1703;SDS011;849;48.780;9.216;2023-04-24T00:49:07;11.67;;;0.40;;
1703;SDS011;849;48.780;9.216;2023-04-24T00:51:33;11.43;;;0.40;;
1703;SDS011;849;48.780;9.216;2023-04-24T00:54:00;11.43;;;0.40;;
1703;SDS011;849;48.780;9.216;2023-04-24T00:56:26;11.37;;;0.30;;
1703;SDS011;849;48.780;9.216;2023-04-24T00:58:52;11.27;;;0.40;;
1703;SDS011;849;48.780;9.216;2023-04-24T01:01:21;11.33;;;0.30;;
1703;SDS011;849;48.780;9.216;2023-04-24T01:03:50;11.23;;;0.40;;
1703;SDS011;849;48.780;9.216;2023-04-24T01:06:18;11.27;;;0.40;;
1703;SDS011;849;48.780;9.216;2023-04-24T01:08:44;11.13;;;0.40;;
1703;SDS011;849;48.780;9.216;2023-04-24T01:11:11;11.03;;;0.30;;
1703;SDS011;849;48.780;9.216;2023-04-24T01:13:37;11.07;;;0.40;;
1703;SDS011;849;48.780;9.216;2023-04-24T01:16:02;11.07;;;0.37;;
1703;SDS011;849;48.780;9.216;2023-04-24T01:18:28;11.07;;;0.30;;
1703;SDS011;849;48.780;9.216;2023-04-24T01:20:56;11.07;;;0.30;;
1703;SDS011;849;48.780;9.216;2023-04-24T01:23:23;10.97;;;0.30;;
1703;SDS011;849;48.780;9.216;2023-04-24T01:25:49;11.10;;;0.40;;
1703;SDS011;849;48.780;9.216;2023-04-24T01:28:16;11.13;;;0.30;;
1703;SDS011;849;48.780;9.216;2023-04-24T01:30:44;11.07;;;0.30;;
1703;SDS011;849;48.780;9.216;2023-04-24T01:33:10;11.17;;;0.40;;
1703;SDS011;849;48.780;9.216;2023-04-24T01:35:37;11.27;;;0.40;;
1703;SDS011;849;48.780;9.216;2023-04-24T01:38:02;11.23;;;0.40;;
1703;SDS011;849;48.780;9.216;2023-04-24T01:40:29;11.33;;;0.30;;
1703;SDS011;849;48.780;9.216;2023-04-24T01:42:55;11.33;;;0.30;;
1703;SDS011;849;48.780;9.216;2023-04-24T01:45:22;11.53;;;0.50;;
1703;SDS011;849;48.780;9.216;2023-04-24T01:47:48;11.63;;;0.30;;
1703;SDS011;849;48.780;9.216;2023-04-24T01:50:15;11.67;;;0.40;;
1703;SDS011;849;48.780;9.216;2023-04-24T01:52:41;11.87;;;0.40;;
1703;SDS011;849;48.780;9.216;2023-04-24T01:55:07;11.77;;;0.40;;
1703;SDS011;849;48.780;9.216;2023-04-24T01:57:33;11.87;;;0.60;;
1703;SDS011;849;48.780;9.216;2023-04-24T01:59:59;11.87;;;0.40;;
1703;SDS011;849;48.780;9.216;2023-04-24T02:02:25;11.77;;;0.40;;
1703;SDS011;849;48.780;9.216;2023-04-24T02:04:55;11.87;;;0.40;;
1703;SDS011;849;48.780;9.216;2023-04-24T02:07:21;11.97;;;0.40;;
1703;SDS011;849;48.780;9.216;2023-04-24T02:09:47;11.87;;;0.40;;
1703;SDS011;849;48.780;9.216;2023-04-24T02:12:13;11.87;;;0.30;;
1703;SDS011;849;48.780;9.216;2023-04-24T02:14:39;13.63;;;1.90;;
1703;SDS011;849;48.780;9.216;2023-04-24T02:17:04;12.03;;;0.40;;
1703;SDS011;849;48.780;9.216;2023-04-24T02:19:30;11.97;;;0.30;;
1703;SDS011;849;48.780;9.216;2023-04-24T02:21:56;12.03;;;0.40;;
1703;SDS011;849;48.780;9.216;2023-04-24T02:24:21;11.90;;;0.40;;
1703;SDS011;849;48.780;9.216;2023-04-24T02:26:47;11.97;;;0.40;;
1703;SDS011;849;48.780;9.216;2023-04-24T02:29:13;12.03;;;0.70;;
1703;SDS011;849;48.780;9.216;2023-04-24T02:31:39;11.97;;;0.40;;
1703;SDS011;849;48.780;9.216;2023-04-24T02:34:05;11.97;;;0.30;;
1703;SDS011;849;48.780;9.216;2023-04-24T02:36:30;12.07;;;0.30;;
1703;SDS011;849;48.780;9.216;2023-04-24T02:38:56;12.03;;;0.30;;
1703;SDS011;849;48.780;9.216;2023-04-24T02:41:22;12.03;;;0.30;;
1703;SDS011;849;48.780;9.216;2023-04-24T02:43:48;11.97;;;0.40;;
1703;SDS011;849;48.780;9.216;2023-04-24T02:46:13;11.97;;;0.30;;
1703;SDS011;849;48.780;9.216;2023-04-24T02:48:39;11.97;;;0.40;;
1703;SDS011;849;48.780;9.216;2023-04-24T02:51:05;12.07;;;0.40;;
1703;SDS011;849;48.780;9.216;2023-04-24T02:53:31;11.97;;;0.30;;
1703;SDS011;849;48.780;9.216;2023-04-24T02:55:57;12.13;;;0.40;;
1703;SDS011;849;48.780;9.216;2023-04-24T02:58:23;12.13;;;0.40;;
1703;SDS011;849;48.780;9.216;2023-04-24T03:00:53;12.03;;;0.37;;
1703;SDS011;849;48.780;9.216;2023-04-24T03:03:20;12.03;;;0.40;;
1703;SDS011;849;48.780;9.216;2023-04-24T03:05:46;12.13;;;0.40;;
1703;SDS011;849;48.780;9.216;2023-04-24T03:08:12;11.97;;;0.40;;
1703;SDS011;849;48.780;9.216;2023-04-24T03:10:39;12.33;;;0.40;;
1703;SDS011;849;48.780;9.216;2023-04-24T03:13:05;12.07;;;0.40;;
1703;SDS011;849;48.780;9.216;2023-04-24T03:15:31;12.67;;;0.40;;
1703;SDS011;849;48.780;9.216;2023-04-24T03:17:57;12.47;;;0.37;;
1703;SDS011;849;48.780;9.216;2023-04-24T03:20:23;12.40;;;0.30;;
1703;SDS011;849;48.780;9.216;2023-04-24T03:22:49;12.93;;;0.40;;
1703;SDS011;849;48.780;9.216;2023-04-24T03:25:14;12.80;;;0.40;;
1703;SDS011;849;48.780;9.216;2023-04-24T03:27:40;13.43;;;0.40;;
1703;SDS011;849;48.780;9.216;2023-04-24T03:30:06;13.20;;;0.40;;
1703;SDS011;849;48.780;9.216;2023-04-24T03:32:33;13.03;;;0.40;;
1703;SDS011;849;48.780;9.216;2023-04-24T03:34:58;13.50;;;0.40;;
1703;SDS011;849;48.780;9.216;2023-04-24T03:37:24;13.33;;;0.40;;
1703;SDS011;849;48.780;9.216;2023-04-24T03:39:51;13.47;;;0.40;;
1703;SDS011;849;48.780;9.216;2023-04-24T03:42:17;13.33;;;0.40;;
1703;SDS011;849;48.780;9.216;2023-04-24T03:44:43;13.47;;;0.40;;
1703;SDS011;849;48.780;9.216;2023-04-24T03:47:08;13.47;;;0.50;;
1703;SDS011;849;48.780;9.216;2023-04-24T03:49:34;13.47;;;0.40;;
1703;SDS011;849;48.780;9.216;2023-04-24T03:52:00;13.50;;;0.40;;
1703;SDS011;849;48.780;9.216;2023-04-24T03:54:25;13.47;;;0.40;;
1703;SDS011;849;48.780;9.216;2023-04-24T03:56:51;13.53;;;0.40;;
1703;SDS011;849;48.780;9.216;2023-04-24T03:59:17;14.13;;;0.60;;
1703;SDS011;849;48.780;9.216;2023-04-24T04:01:43;13.63;;;0.40;;
1703;SDS011;849;48.780;9.216;2023-04-24T04:04:08;13.83;;;0.30;;
1703;SDS011;849;48.780;9.216;2023-04-24T04:06:34;13.70;;;0.40;;
1703;SDS011;849;48.780;9.216;2023-04-24T04:09:01;13.67;;;0.40;;
1703;SDS011;849;48.780;9.216;2023-04-24T04:11:28;13.67;;;0.40;;
1703;SDS011;849;48.780;9.216;2023-04-24T04:13:54;13.77;;;0.40;;
1703;SDS011;849;48.780;9.216;2023-04-24T04:16:20;13.77;;;0.40;;
1703;SDS011;849;48.780;9.216;2023-04-24T04:18:46;13.93;;;0.50;;
1703;SDS011;849;48.780;9.216;2023-04-24T04:21:11;13.83;;;0.40;;
1703;SDS011;849;48.780;9.216;2023-04-24T04:23:37;13.73;;;0.40;;
1703;SDS011;849;48.780;9.216;2023-04-24T04:26:03;13.73;;;0.50;;
1703;SDS011;849;48.780;9.216;2023-04-24T04:28:29;13.80;;;0.40;;
1703;SDS011;849;48.780;9.216;2023-04-24T04:30:57;13.87;;;0.40;;
1703;SDS011;849;48.780;9.216;2023-04-24T04:33:23;14.27;;;0.40;;
1703;SDS011;849;48.780;9.216;2023-04-24T04:35:50;14.20;;;0.40;;
1703;SDS011;849;48.780;9.216;2023-04-24T04:38:21;15.13;;;0.40;;
1703;SDS011;849;48.780;9.216;2023-04-24T04:40:47;14.63;;;0.40;;
1703;SDS011;849;48.780;9.216;2023-04-24T04:43:13;14.83;;;0.40;;
1703;SDS011;849;48.780;9.216;2023-04-24T04:45:40;14.73;;;0.40;;
1703;SDS011;849;48.780;9.216;2023-04-24T04:48:07;14.63;;;0.40;;
1703;SDS011;849;48.780;9.216;2023-04-24T04:50:35;15.87;;;1.13;;
1703;SDS011;849;48.780;9.216;2023-04-24T04:53:00;15.00;;;0.47;;
1703;SDS011;849;48.780;9.216;2023-04-24T04:55:26;14.90;;;0.40;;
1703;SDS011;849;48.780;9.216;2023-04-24T04:57:52;14.87;;;0.50;;
1703;SDS011;849;48.780;9.216;2023-04-24T05:00:18;14.73;;;0.40;;
1703;SDS011;849;48.780;9.216;2023-04-24T05:02:44;14.73;;;0.40;;
1703;SDS011;849;48.780;9.216;2023-04-24T05:05:09;14.63;;;0.40;;
1703;SDS011;849;48.780;9.216;2023-04-24T05:07:35;14.67;;;0.40;;
1703;SDS011;849;48.780;9.216;2023-04-24T05:10:01;14.97;;;0.50;;
1703;SDS011;849;48.780;9.216;2023-04-24T05:12:27;14.63;;;0.40;;
1703;SDS011;849;48.780;9.216;2023-04-24T05:14:53;14.63;;;0.50;;
1703;SDS011;849;48.780;9.216;2023-04-24T05:17:18;14.67;;;0.40;;
1703;SDS011;849;48.780;9.216;2023-04-24T05:19:44;14.53;;;0.40;;
1703;SDS011;849;48.780;9.216;2023-04-24T05:22:10;14.60;;;0.40;;
1703;SDS011;849;48.780;9.216;2023-04-24T05:24:36;14.60;;;0.40;;
1703;SDS011;849;48.780;9.216;2023-04-24T05:27:03;14.47;;;0.40;;
1703;SDS011;849;48.780;9.216;2023-04-24T05:29:30;14.57;;;0.40;;
1703;SDS011;849;48.780;9.216;2023-04-24T05:31:56;14.57;;;0.40;;
1703;SDS011;849;48.780;9.216;2023-04-24T05:34:22;14.57;;;0.40;;
1703;SDS011;849;48.780;9.216;2023-04-24T05:36:48;14.43;;;0.40;;
1703;SDS011;849;48.780;9.216;2023-04-24T05:39:15;14.40;;;0.40;;
1703;SDS011;849;48.780;9.216;2023-04-24T05:41:41;14.33;;;0.40;;
1703;SDS011;849;48.780;9.216;2023-04-24T05:44:07;14.40;;;0.37;;
1703;SDS011;849;48.780;9.216;2023-04-24T05:46:32;14.20;;;0.40;;
1703;SDS011;849;48.780;9.216;2023-04-24T05:48:58;14.30;;;0.40;;
1703;SDS011;849;48.780;9.216;2023-04-24T05:51:24;14.27;;;0.40;;
1703;SDS011;849;48.780;9.216;2023-04-24T05:53:50;15.48;;;0.40;;
1703;SDS011;849;48.780;9.216;2023-04-24T05:56:16;14.03;;;0.40;;
1703;SDS011;849;48.780;9.216;2023-04-24T05:58:43;14.80;;;1.90;;
1703;SDS011;849;48.780;9.216;2023-04-24T06:01:08;14.17;;;0.40;;
1703;SDS011;849;48.780;9.216;2023-04-24T06:03:34;14.07;;;0.50;;
1703;SDS011;849;48.780;9.216;2023-04-24T06:06:00;15.18;;;0.40;;
1703;SDS011;849;48.780;9.216;2023-04-24T06:08:26;13.83;;;0.40;;
1703;SDS011;849;48.780;9.216;2023-04-24T06:10:51;14.03;;;0.40;;
1703;SDS011;849;48.780;9.216;2023-04-24T06:13:17;14.07;;;0.97;;
1703;SDS011;849;48.780;9.216;2023-04-24T06:15:43;13.97;;;0.40;;
1703;SDS011;849;48.780;9.216;2023-04-24T06:18:09;14.20;;;0.40;;
1703;SDS011;849;48.780;9.216;2023-04-24T06:20:37;15.18;;;0.40;;
1703;SDS011;849;48.780;9.216;2023-04-24T06:23:03;13.77;;;0.40;;
1703;SDS011;849;48.780;9.216;2023-04-24T06:25:29;13.73;;;0.40;;
1703;SDS011;849;48.780;9.216;2023-04-24T06:27:55;14.80;;;2.20;;
1703;SDS011;849;48.780;9.216;2023-04-24T06:30:21;14.30;;;1.13;;
1703;SDS011;849;48.780;9.216;2023-04-24T06:32:47;13.40;;;0.40;;
1703;SDS011;849;48.780;9.216;2023-04-24T06:35:13;13.23;;;0.40;;
1703;SDS011;849;48.780;9.216;2023-04-24T06:37:39;13.23;;;0.40;;
1703;SDS011;849;48.780;9.216;2023-04-24T06:40:06;13.23;;;0.37;;
1703;SDS011;849;48.780;9.216;2023-04-24T06:42:32;14.20;;;0.40;;
1703;SDS011;849;48.780;9.216;2023-04-24T06:44:58;13.23;;;0.40;;
1703;SDS011;849;48.780;9.216;2023-04-24T06:47:24;13.17;;;0.40;;
1703;SDS011;849;48.780;9.216;2023-04-24T06:49:50;13.23;;;0.40;;
1703;SDS011;849;48.780;9.216;2023-04-24T06:52:17;12.70;;;0.40;;
1703;SDS011;849;48.780;9.216;2023-04-24T06:54:43;12.17;;;0.40;;
1703;SDS011;849;48.780;9.216;2023-04-24T06:57:09;10.87;;;0.40;;
1703;SDS011;849;48.780;9.216;2023-04-24T06:59:35;11.13;;;0.30;;
1703;SDS011;849;48.780;9.216;2023-04-24T07:02:02;10.43;;;0.40;;
1703;SDS011;849;48.780;9.216;2023-04-24T07:04:28;11.10;;;0.40;;
1703;SDS011;849;48.780;9.216;2023-04-24T07:06:54;11.13;;;0.30;;
1703;SDS011;849;48.780;9.216;2023-04-24T07:09:21;10.87;;;0.80;;
1703;SDS011;849;48.780;9.216;2023-04-24T07:11:49;11.57;;;0.70;;
1703;SDS011;849;48.780;9.216;2023-04-24T07:14:15;11.27;;;0.40;;
1703;SDS011;849;48.780;9.216;2023-04-24T07:16:41;11.33;;;0.40;;
1703;SDS011;849;48.780;9.216;2023-04-24T07:19:07;10.63;;;0.40;;
1703;SDS011;849;48.780;9.216;2023-04-24T07:21:32;10.43;;;0.30;;
1703;SDS011;849;48.780;9.216;2023-04-24T07:23:58;10.53;;;0.30;;
1703;SDS011;849;48.780;9.216;2023-04-24T07:26:25;10.13;;;0.40;;
1703;SDS011;849;48.780;9.216;2023-04-24T07:28:51;10.03;;;0.30;;
1703;SDS011;849;48.780;9.216;2023-04-24T07:31:17;10.03;;;0.30;;
1703;SDS011;849;48.780;9.216;2023-04-24T07:33:42;9.03;;;0.40;;
1703;SDS011;849;48.780;9.216;2023-04-24T07:36:08;9.43;;;0.40;;
1703;SDS011;849;48.780;9.216;2023-04-24T07:38:40;9.37;;;0.30;;
1703;SDS011;849;48.780;9.216;2023-04-24T07:41:09;10.00;;;0.40;;
1703;SDS011;849;48.780;9.216;2023-04-24T07:43:35;10.10;;;0.30;;
1703;SDS011;849;48.780;9.216;2023-04-24T07:46:00;10.03;;;0.40;;
1703;SDS011;849;48.780;9.216;2023-04-24T07:48:26;10.90;;;0.40;;
1703;SDS011;849;48.780;9.216;2023-04-24T07:50:52;11.10;;;0.50;;
1703;SDS011;849;48.780;9.216;2023-04-24T07:53:18;11.30;;;0.93;;
1703;SDS011;849;48.780;9.216;2023-04-24T07:55:44;11.03;;;0.70;;
1703;SDS011;849;48.780;9.216;2023-04-24T07:58:09;10.23;;;0.80;;
1703;SDS011;849;48.780;9.216;2023-04-24T08:00:35;10.20;;;0.70;;
1703;SDS011;849;48.780;9.216;2023-04-24T08:03:01;10.60;;;0.37;;
1703;SDS011;849;48.780;9.216;2023-04-24T08:05:27;10.60;;;0.40;;
1703;SDS011;849;48.780;9.216;2023-04-24T08:07:53;10.40;;;0.37;;
1703;SDS011;849;48.780;9.216;2023-04-24T08:10:20;9.90;;;0.40;;
1703;SDS011;849;48.780;9.216;2023-04-24T08:12:49;9.80;;;0.40;;
1703;SDS011;849;48.780;9.216;2023-04-24T08:15:15;9.70;;;0.40;;
1703;SDS011;849;48.780;9.216;2023-04-24T08:17:41;9.73;;;0.30;;
1703;SDS011;849;48.780;9.216;2023-04-24T08:20:07;9.43;;;0.50;;
1703;SDS011;849;48.780;9.216;2023-04-24T08:22:38;10.97;;;0.77;;
1703;SDS011;849;48.780;9.216;2023-04-24T08:25:05;9.60;;;0.30;;
1703;SDS011;849;48.780;9.216;2023-04-24T08:27:31;9.90;;;0.90;;
1703;SDS011;849;48.780;9.216;2023-04-24T08:29:57;9.67;;;0.87;;
1703;SDS011;849;48.780;9.216;2023-04-24T08:32:24;9.57;;;0.30;;
1703;SDS011;849;48.780;9.216;2023-04-24T08:34:49;9.73;;;0.40;;
1703;SDS011;849;48.780;9.216;2023-04-24T08:37:17;10.00;;;0.43;;
1703;SDS011;849;48.780;9.216;2023-04-24T08:39:43;9.73;;;0.30;;
1703;SDS011;849;48.780;9.216;2023-04-24T08:42:09;10.00;;;0.50;;
1703;SDS011;849;48.780;9.216;2023-04-24T08:44:37;9.37;;;0.40;;
1703;SDS011;849;48.780;9.216;2023-04-24T08:47:04;9.43;;;0.30;;
1703;SDS011;849;48.780;9.216;2023-04-24T08:49:31;9.30;;;0.53;;
1703;SDS011;849;48.780;9.216;2023-04-24T08:51:57;8.70;;;0.40;;
1703;SDS011;849;48.780;9.216;2023-04-24T08:54:22;6.33;;;0.70;;
1703;SDS011;849;48.780;9.216;2023-04-24T08:56:49;8.73;;;0.40;;
1703;SDS011;849;48.780;9.216;2023-04-24T08:59:17;9.10;;;0.30;;
1703;SDS011;849;48.780;9.216;2023-04-24T09:01:43;9.10;;;0.60;;
1703;SDS011;849;48.780;9.216;2023-04-24T09:04:11;8.90;;;0.40;;
1703;SDS011;849;48.780;9.216;2023-04-24T09:06:40;8.87;;;0.40;;
1703;SDS011;849;48.780;9.216;2023-04-24T09:09:05;8.60;;;0.40;;
1703;SDS011;849;48.780;9.216;2023-04-24T09:11:32;8.20;;;0.30;;
1703;SDS011;849;48.780;9.216;2023-04-24T09:13:58;8.73;;;0.30;;
1703;SDS011;849;48.780;9.216;2023-04-24T09:16:25;8.87;;;0.40;;
1703;SDS011;849;48.780;9.216;2023-04-24T09:18:51;8.83;;;0.30;;
1703;SDS011;849;48.780;9.216;2023-04-24T09:21:18;8.83;;;0.60;;
1703;SDS011;849;48.780;9.216;2023-04-24T09:23:47;7.93;;;0.70;;
1703;SDS011;849;48.780;9.216;2023-04-24T09:26:24;9.50;;;0.57;;
1703;SDS011;849;48.780;9.216;2023-04-24T09:28:49;9.17;;;0.60;;
1703;SDS011;849;48.780;9.216;2023-04-24T09:31:16;9.13;;;0.37;;
1703;SDS011;849;48.780;9.216;2023-04-24T09:34:00;11.20;;;0.67;;
1703;SDS011;849;48.780;9.216;2023-04-24T09:36:34;9.47;;;0.50;;
1703;SDS011;849;48.780;9.216;2023-04-24T09:39:11;9.43;;;0.30;;
1703;SDS011;849;48.780;9.216;2023-04-24T09:44:23;9.73;;;0.40;;
1703;SDS011;849;48.780;9.216;2023-04-24T09:46:56;9.57;;;0.40;;
1703;SDS011;849;48.780;9.216;2023-04-24T09:49:24;19.83;;;1.80;;
1703;SDS011;849;48.780;9.216;2023-04-24T09:52:09;9.87;;;0.40;;
1703;SDS011;849;48.780;9.216;2023-04-24T09:54:36;9.93;;;0.57;;
1703;SDS011;849;48.780;9.216;2023-04-24T09:57:03;9.63;;;0.30;;
1703;SDS011;849;48.780;9.216;2023-04-24T09:59:30;9.77;;;0.40;;
1703;SDS011;849;48.780;9.216;2023-04-24T10:01:56;9.80;;;0.40;;
1703;SDS011;849;48.780;9.216;2023-04-24T10:04:24;9.57;;;0.30;;
1703;SDS011;849;48.780;9.216;2023-04-24T10:06:52;10.17;;;0.80;;
1703;SDS011;849;48.780;9.216;2023-04-24T10:09:20;9.87;;;0.50;;
1703;SDS011;849;48.780;9.216;2023-04-24T10:11:49;9.43;;;0.30;;
1703;SDS011;849;48.780;9.216;2023-04-24T10:14:17;9.40;;;0.50;;
1703;SDS011;849;48.780;9.216;2023-04-24T10:16:44;9.50;;;0.50;;
1703;SDS011;849;48.780;9.216;2023-04-24T10:19:12;8.97;;;0.40;;
1703;SDS011;849;48.780;9.216;2023-04-24T10:21:38;8.47;;;0.30;;
1703;SDS011;849;48.780;9.216;2023-04-24T10:24:07;8.60;;;0.40;;
1703;SDS011;849;48.780;9.216;2023-04-24T10:26:34;8.37;;;0.60;;
1703;SDS011;849;48.780;9.216;2023-04-24T10:29:00;6.23;;;0.30;;
1703;SDS011;849;48.780;9.216;2023-04-24T10:31:28;6.40;;;0.40;;
1703;SDS011;849;48.780;9.216;2023-04-24T10:33:56;6.30;;;0.30;;
1703;SDS011;849;48.780;9.216;2023-04-24T10:36:24;6.33;;;0.40;;
1703;SDS011;849;48.780;9.216;2023-04-24T10:38:53;6.50;;;0.87;;
1703;SDS011;849;48.780;9.216;2023-04-24T10:41:21;6.70;;;0.70;;
1703;SDS011;849;48.780;9.216;2023-04-24T10:44:09;6.13;;;0.40;;
1703;SDS011;849;48.780;9.216;2023-04-24T10:46:37;6.20;;;0.60;;
1703;SDS011;849;48.780;9.216;2023-04-24T10:49:04;7.50;;;0.40;;
1703;SDS011;849;48.780;9.216;2023-04-24T10:51:50;6.07;;;0.40;;
1703;SDS011;849;48.780;9.216;2023-04-24T10:54:25;6.10;;;0.30;;
1703;SDS011;849;48.780;9.216;2023-04-24T10:56:51;6.20;;;0.40;;
1703;SDS011;849;48.780;9.216;2023-04-24T10:59:27;6.20;;;0.50;;
1703;SDS011;849;48.780;9.216;2023-04-24T11:01:59;6.10;;;0.40;;
1703;SDS011;849;48.780;9.216;2023-04-24T11:04:34;6.10;;;0.40;;
1703;SDS011;849;48.780;9.216;2023-04-24T11:07:02;6.23;;;0.30;;
1703;SDS011;849;48.780;9.216;2023-04-24T11:09:32;6.20;;;0.30;;
1703;SDS011;849;48.780;9.216;2023-04-24T11:12:04;6.13;;;0.40;;
1703;SDS011;849;48.780;9.216;2023-04-24T11:17:29;6.27;;;0.60;;
1703;SDS011;849;48.780;9.216;2023-04-24T11:20:03;6.30;;;0.60;;
1703;SDS011;849;48.780;9.216;2023-04-24T11:22:32;6.20;;;0.40;;
1703;SDS011;849;48.780;9.216;2023-04-24T11:25:00;6.20;;;0.30;;
1703;SDS011;849;48.780;9.216;2023-04-24T11:27:30;7.93;;;0.40;;
1703;SDS011;849;48.780;9.216;2023-04-24T11:30:00;7.90;;;0.60;;
1703;SDS011;849;48.780;9.216;2023-04-24T11:37:34;7.97;;;0.30;;
1703;SDS011;849;48.780;9.216;2023-04-24T11:40:01;7.93;;;0.40;;
1703;SDS011;849;48.780;9.216;2023-04-24T11:42:27;7.87;;;0.30;;
1703;SDS011;849;48.780;9.216;2023-04-24T11:44:54;8.40;;;0.50;;
1703;SDS011;849;48.780;9.216;2023-04-24T11:47:27;7.83;;;0.30;;
1703;SDS011;849;48.780;9.216;2023-04-24T11:49:54;6.60;;;0.60;;
1703;SDS011;849;48.780;9.216;2023-04-24T11:52:19;9.70;;;0.80;;
1703;SDS011;849;48.780;9.216;2023-04-24T11:54:49;7.90;;;0.60;;
1703;SDS011;849;48.780;9.216;2023-04-24T11:57:21;9.10;;;0.60;;
1703;SDS011;849;48.780;9.216;2023-04-24T11:59:51;8.13;;;0.60;;
1703;SDS011;849;48.780;9.216;2023-04-24T12:02:23;8.10;;;0.40;;
1703;SDS011;849;48.780;9.216;2023-04-24T12:04:50;7.87;;;0.30;;
1703;SDS011;849;48.780;9.216;2023-04-24T12:07:17;6.03;;;0.47;;
1703;SDS011;849;48.780;9.216;2023-04-24T12:09:46;7.70;;;1.00;;
1703;SDS011;849;48.780;9.216;2023-04-24T12:12:13;7.17;;;0.33;;
1703;SDS011;849;48.780;9.216;2023-04-24T12:14:47;7.50;;;0.50;;
1703;SDS011;849;48.780;9.216;2023-04-24T12:17:15;7.80;;;0.50;;
1703;SDS011;849;48.780;9.216;2023-04-24T12:19:45;7.47;;;0.60;;
1703;SDS011;849;48.780;9.216;2023-04-24T12:22:12;7.47;;;0.50;;
1703;SDS011;849;48.780;9.216;2023-04-24T12:27:26;7.57;;;0.63;;
1703;SDS011;849;48.780;9.216;2023-04-24T12:29:57;7.30;;;0.70;;
1703;SDS011;849;48.780;9.216;2023-04-24T12:32:24;7.50;;;0.30;;
1703;SDS011;849;48.780;9.216;2023-04-24T12:34:51;8.20;;;0.87;;
1703;SDS011;849;48.780;9.216;2023-04-24T12:37:17;7.40;;;0.40;;
1703;SDS011;849;48.780;9.216;2023-04-24T12:39:59;8.67;;;0.80;;
1703;SDS011;849;48.780;9.216;2023-04-24T12:42:33;7.33;;;0.30;;
1703;SDS011;849;48.780;9.216;2023-04-24T12:45:00;7.63;;;1.03;;
1703;SDS011;849;48.780;9.216;2023-04-24T12:47:28;8.93;;;1.13;;
1703;SDS011;849;48.780;9.216;2023-04-24T12:49:54;7.63;;;0.30;;
1703;SDS011;849;48.780;9.216;2023-04-24T12:52:23;7.70;;;0.60;;
1703;SDS011;849;48.780;9.216;2023-04-24T12:54:52;7.43;;;0.40;;
1703;SDS011;849;48.780;9.216;2023-04-24T12:57:19;7.70;;;0.50;;
1703;SDS011;849;48.780;9.216;2023-04-24T12:59:45;7.60;;;0.40;;
1703;SDS011;849;48.780;9.216;2023-04-24T13:02:10;8.70;;;0.67;;
1703;SDS011;849;48.780;9.216;2023-04-24T13:04:37;7.30;;;0.40;;
1703;SDS011;849;48.780;9.216;2023-04-24T13:07:02;7.23;;;0.70;;
1703;SDS011;849;48.780;9.216;2023-04-24T13:09:28;7.90;;;0.70;;
1703;SDS011;849;48.780;9.216;2023-04-24T13:11:54;7.37;;;0.30;;
1703;SDS011;849;48.780;9.216;2023-04-24T13:14:21;6.70;;;1.00;;
1703;SDS011;849;48.780;9.216;2023-04-24T13:16:47;8.60;;;0.30;;
1703;SDS011;849;48.780;9.216;2023-04-24T13:19:13;8.63;;;0.70;;
1703;SDS011;849;48.780;9.216;2023-04-24T13:21:38;8.70;;;0.30;;
1703;SDS011;849;48.780;9.216;2023-04-24T13:24:04;9.07;;;0.40;;
1703;SDS011;849;48.780;9.216;2023-04-24T13:26:30;10.50;;;1.33;;
1703;SDS011;849;48.780;9.216;2023-04-24T13:28:56;9.63;;;0.40;;
1703;SDS011;849;48.780;9.216;2023-04-24T13:31:21;9.67;;;0.40;;
1703;SDS011;849;48.780;9.216;2023-04-24T13:33:47;10.10;;;0.60;;
1703;SDS011;849;48.780;9.216;2023-04-24T13:36:13;9.60;;;0.60;;
1703;SDS011;849;48.780;9.216;2023-04-24T13:38:39;9.93;;;0.30;;
1703;SDS011;849;48.780;9.216;2023-04-24T13:41:04;9.87;;;0.37;;
1703;SDS011;849;48.780;9.216;2023-04-24T13:43:30;9.97;;;0.30;;
1703;SDS011;849;48.780;9.216;2023-04-24T13:45:56;10.30;;;0.80;;
1703;SDS011;849;48.780;9.216;2023-04-24T13:48:21;10.00;;;0.50;;
1703;SDS011;849;48.780;9.216;2023-04-24T13:50:47;9.53;;;0.60;;
1703;SDS011;849;48.780;9.216;2023-04-24T13:53:14;9.53;;;0.40;;
1703;SDS011;849;48.780;9.216;2023-04-24T13:55:40;9.30;;;0.50;;
1703;SDS011;849;48.780;9.216;2023-04-24T13:58:06;9.40;;;0.60;;
1703;SDS011;849;48.780;9.216;2023-04-24T14:00:32;9.43;;;0.40;;
1703;SDS011;849;48.780;9.216;2023-04-24T14:02:58;9.77;;;0.60;;
1703;SDS011;849;48.780;9.216;2023-04-24T14:05:24;8.10;;;0.80;;
1703;SDS011;849;48.780;9.216;2023-04-24T14:07:50;7.63;;;0.40;;
1703;SDS011;849;48.780;9.216;2023-04-24T14:10:16;7.53;;;0.30;;
1703;SDS011;849;48.780;9.216;2023-04-24T14:12:41;7.50;;;0.30;;
1703;SDS011;849;48.780;9.216;2023-04-24T14:15:07;7.90;;;0.50;;
1703;SDS011;849;48.780;9.216;2023-04-24T14:17:34;9.47;;;0.70;;
1703;SDS011;849;48.780;9.216;2023-04-24T14:20:00;7.80;;;0.83;;
1703;SDS011;849;48.780;9.216;2023-04-24T14:22:25;7.43;;;0.30;;
1703;SDS011;849;48.780;9.216;2023-04-24T14:24:51;7.33;;;0.30;;
1703;SDS011;849;48.780;9.216;2023-04-24T14:27:17;7.47;;;0.40;;
1703;SDS011;849;48.780;9.216;2023-04-24T14:29:42;6.57;;;0.60;;
1703;SDS011;849;48.780;9.216;2023-04-24T14:32:10;6.47;;;0.30;;
1703;SDS011;849;48.780;9.216;2023-04-24T14:34:35;7.37;;;0.30;;
1703;SDS011;849;48.780;9.216;2023-04-24T14:37:01;7.40;;;0.30;;
1703;SDS011;849;48.780;9.216;2023-04-24T14:39:27;7.37;;;0.40;;
1703;SDS011;849;48.780;9.216;2023-04-24T14:41:53;7.37;;;0.40;;
1703;SDS011;849;48.780;9.216;2023-04-24T14:44:20;7.40;;;0.30;;
1703;SDS011;849;48.780;9.216;2023-04-24T14:46:45;7.80;;;0.70;;
1703;SDS011;849;48.780;9.216;2023-04-24T14:49:11;7.57;;;0.50;;
1703;SDS011;849;48.780;9.216;2023-04-24T14:51:37;7.37;;;0.40;;
1703;SDS011;849;48.780;9.216;2023-04-24T14:54:03;7.40;;;0.40;;
1703;SDS011;849;48.780;9.216;2023-04-24T14:56:29;7.43;;;0.40;;
1703;SDS011;849;48.780;9.216;2023-04-24T14:58:55;7.50;;;0.30;;
1703;SDS011;849;48.780;9.216;2023-04-24T15:01:20;7.27;;;0.30;;
1703;SDS011;849;48.780;9.216;2023-04-24T15:03:46;7.30;;;0.30;;
1703;SDS011;849;48.780;9.216;2023-04-24T15:06:12;7.40;;;0.30;;
1703;SDS011;849;48.780;9.216;2023-04-24T15:08:38;7.83;;;0.50;;
1703;SDS011;849;48.780;9.216;2023-04-24T15:11:03;7.40;;;0.30;;
1703;SDS011;849;48.780;9.216;2023-04-24T15:13:29;6.60;;;0.30;;
1703;SDS011;849;48.780;9.216;2023-04-24T15:15:55;7.10;;;1.17;;
1703;SDS011;849;48.780;9.216;2023-04-24T15:18:20;6.77;;;0.43;;
1703;SDS011;849;48.780;9.216;2023-04-24T15:20:46;6.70;;;0.30;;
1703;SDS011;849;48.780;9.216;2023-04-24T15:23:12;6.60;;;0.30;;
1703;SDS011;849;48.780;9.216;2023-04-24T15:25:37;7.63;;;1.63;;
1703;SDS011;849;48.780;9.216;2023-04-24T15:28:03;6.57;;;0.30;;
1703;SDS011;849;48.780;9.216;2023-04-24T15:30:32;6.50;;;0.30;;
1703;SDS011;849;48.780;9.216;2023-04-24T15:32:59;6.43;;;0.30;;